Time;durP1;ratioP1;P1;durP2;ratioP2;P2;SDS_P1;SDS_P2;PMS_P1;PMS_P2;Temp;Humidity;BMP_temperature;BMP_pressure;BME280_temperature;BME280_humidity;BME280_pressure;Samples;Min_cycle;Max_cycle;Signal;HPM_P1;HPM_P2
2022/12/21 00:00:15;;;;;;;82.05;38.75;;;;;;;;;;1038876;28;20013;-78
2022/12/21 00:00:45;;;;;;;73.88;34.17;;;;;;;;;;1039233;28;20079;-78
2022/12/21 00:01:17;;;;;;;73.03;33.63;;;;;;;;;;1039563;28;20021;-77
2022/12/21 00:01:48;;;;;;;79.35;33.90;;;;;;;;;;1040109;28;20108;-77
2022/12/21 00:02:18;;;;;;;69.68;32.22;;;;;;;;;;1041095;28;20385;-78
2022/12/21 00:02:49;;;;;;;66.00;30.23;;;;;;;;;;1040343;28;20026;-78
2022/12/21 00:03:19;;;;;;;75.07;31.80;;;;;;;;;;1039620;28;20051;-78
2022/12/21 00:03:52;;;;;;;68.78;32.15;;;;;;;;;;1040007;28;20120;-78
2022/12/21 00:04:22;;;;;;;84.93;33.15;;;;;;;;;;1039963;28;20463;-78
2022/12/21 00:04:53;;;;;;;70.55;32.63;;;;;;;;;;1039997;28;20017;-78
2022/12/21 00:05:24;;;;;;;61.35;30.50;;;;;;;;;;1039980;28;20033;-78
2022/12/21 00:05:56;;;;;;;81.28;34.53;;;;;;;;;;1039938;28;20017;-78
2022/12/21 00:06:28;;;;;;;82.25;36.85;;;;;;;;;;1039941;28;20116;-77
2022/12/21 00:06:59;;;;;;;82.82;38.33;;;;;;;;;;1039632;28;20021;-78
2022/12/21 00:07:29;;;;;;;80.57;37.25;;;;;;;;;;1039737;28;20061;-78
2022/12/21 00:08:00;;;;;;;92.97;37.72;;;;;;;;;;1039561;28;20108;-78
2022/12/21 00:08:34;;;;;;;83.75;37.92;;;;;;;;;;1039856;28;20029;-78
2022/12/21 00:09:06;;;;;;;80.32;37.05;;;;;;;;;;1038245;28;20453;-78
2022/12/21 00:09:37;;;;;;;88.60;39.92;;;;;;;;;;1037697;28;20021;-78
2022/12/21 00:10:08;;;;;;;72.10;34.22;;;;;;;;;;1039071;28;20064;-77
2022/12/21 00:10:38;;;;;;;81.43;34.28;;;;;;;;;;1039161;28;20013;-78
2022/12/21 00:11:09;;;;;;;75.47;31.95;;;;;;;;;;1039769;28;20041;-78
2022/12/21 00:11:40;;;;;;;65.53;31.80;;;;;;;;;;1035696;28;20124;-78
2022/12/21 00:12:10;;;;;;;67.50;31.30;;;;;;;;;;1039551;28;20033;-78
2022/12/21 00:12:41;;;;;;;81.45;33.00;;;;;;;;;;1039772;28;20071;-78
2022/12/21 00:13:11;;;;;;;78.32;33.75;;;;;;;;;;1039657;28;20433;-77
2022/12/21 00:13:42;;;;;;;85.03;35.67;;;;;;;;;;1039587;28;20029;-78
2022/12/21 00:14:13;;;;;;;76.18;35.88;;;;;;;;;;1039503;28;20021;-78
2022/12/21 00:14:44;;;;;;;78.80;36.45;;;;;;;;;;1039555;28;20654;-78
2022/12/21 00:15:15;;;;;;;76.03;36.08;;;;;;;;;;1039724;28;20500;-78
2022/12/21 00:15:55;;;;;;;69.10;34.15;;;;;;;;;;1039714;28;20028;-78
2022/12/21 00:16:27;;;;;;;62.35;30.02;;;;;;;;;;1038656;28;20021;-78
2022/12/21 00:16:57;;;;;;;60.13;27.77;;;;;;;;;;1037422;28;20508;-78
2022/12/21 00:17:28;;;;;;;78.78;34.17;;;;;;;;;;1039686;28;20029;-78
2022/12/21 00:17:58;;;;;;;79.70;36.75;;;;;;;;;;1035817;28;20025;-78
2022/12/21 00:18:33;;;;;;;86.47;39.80;;;;;;;;;;1038597;28;20401;-78
2022/12/21 00:19:03;;;;;;;74.93;38.00;;;;;;;;;;1037630;28;20091;-78
2022/12/21 00:19:34;;;;;;;79.57;38.38;;;;;;;;;;1036070;28;20036;-78
2022/12/21 00:20:06;;;;;;;98.15;41.80;;;;;;;;;;1039475;28;20070;-78
2022/12/21 00:20:37;;;;;;;102.57;43.47;;;;;;;;;;1039853;28;20059;-78
2022/12/21 00:21:15;;;;;;;128.70;53.38;;;;;;;;;;1035755;28;20503;-78
2022/12/21 00:21:46;;;;;;;109.85;46.00;;;;;;;;;;1039019;28;20032;-78
2022/12/21 00:22:16;;;;;;;99.75;45.80;;;;;;;;;;1038964;28;20484;-78
2022/12/21 00:22:47;;;;;;;71.07;36.47;;;;;;;;;;1039754;28;20029;-78
2022/12/21 00:23:17;;;;;;;102.63;44.15;;;;;;;;;;1039469;28;20029;-78
2022/12/21 00:23:48;;;;;;;81.05;42.03;;;;;;;;;;1039734;28;20029;-78
2022/12/21 00:24:19;;;;;;;105.30;44.90;;;;;;;;;;1039495;28;20080;-78
2022/12/21 00:24:50;;;;;;;85.45;40.83;;;;;;;;;;1039519;28;20087;-78
2022/12/21 00:25:20;;;;;;;70.90;40.17;;;;;;;;;;1038714;28;20104;-78
2022/12/21 00:25:51;;;;;;;76.88;38.75;;;;;;;;;;1039920;28;20560;-78
2022/12/21 00:26:23;;;;;;;79.43;39.33;;;;;;;;;;1039942;28;20025;-78
2022/12/21 00:26:53;;;;;;;75.65;41.67;;;;;;;;;;1040030;28;20021;-78
2022/12/21 00:27:24;;;;;;;78.25;38.03;;;;;;;;;;1039479;28;20393;-78
2022/12/21 00:27:54;;;;;;;91.40;46.63;;;;;;;;;;1039621;28;20532;-78
2022/12/21 00:28:25;;;;;;;85.25;43.33;;;;;;;;;;1039609;28;20112;-78
2022/12/21 00:28:57;;;;;;;91.72;44.22;;;;;;;;;;1039642;28;20017;-78
2022/12/21 00:29:27;;;;;;;99.60;45.17;;;;;;;;;;1039835;28;20045;-78
2022/12/21 00:29:58;;;;;;;86.35;44.75;;;;;;;;;;1038448;28;20032;-78
2022/12/21 00:30:28;;;;;;;81.35;42.08;;;;;;;;;;1039687;28;20115;-78
2022/12/21 00:31:06;;;;;;;93.50;41.70;;;;;;;;;;1039905;28;20397;-77
2022/12/21 00:31:39;;;;;;;96.05;42.88;;;;;;;;;;1038524;28;20036;-78
2022/12/21 00:32:09;;;;;;;88.32;44.38;;;;;;;;;;1037976;28;20030;-78
2022/12/21 00:32:40;;;;;;;91.60;41.40;;;;;;;;;;1039980;28;20635;-78
2022/12/21 00:33:10;;;;;;;102.13;43.05;;;;;;;;;;1039442;28;20505;-78
2022/12/21 00:33:42;;;;;;;78.72;38.63;;;;;;;;;;1039647;28;20139;-78
2022/12/21 00:34:17;;;;;;;84.65;41.72;;;;;;;;;;1039330;28;20025;-78
2022/12/21 00:34:48;;;;;;;82.22;38.50;;;;;;;;;;1037366;28;20026;-78
2022/12/21 00:35:19;;;;;;;87.38;41.08;;;;;;;;;;1039327;28;20025;-78
2022/12/21 00:35:50;;;;;;;93.97;43.42;;;;;;;;;;1039497;28;20022;-78
2022/12/21 00:36:22;;;;;;;80.00;40.28;;;;;;;;;;1039622;28;20025;-78
2022/12/21 00:36:53;;;;;;;104.47;42.97;;;;;;;;;;1037760;28;20025;-78
2022/12/21 00:37:23;;;;;;;92.75;44.53;;;;;;;;;;1039902;28;20493;-78
2022/12/21 00:37:54;;;;;;;83.05;41.50;;;;;;;;;;1039399;28;20115;-78
2022/12/21 00:38:24;;;;;;;79.22;40.72;;;;;;;;;;1039562;28;20025;-78
2022/12/21 00:38:55;;;;;;;80.38;39.25;;;;;;;;;;1038318;28;20036;-78
2022/12/21 00:39:26;;;;;;;86.53;40.50;;;;;;;;;;1039413;28;20485;-78
2022/12/21 00:39:56;;;;;;;82.97;39.05;;;;;;;;;;1039851;28;20105;-78
2022/12/21 00:40:27;;;;;;;79.07;39.53;;;;;;;;;;1039332;28;20108;-78
2022/12/21 00:40:59;;;;;;;87.03;40.70;;;;;;;;;;1039387;28;20018;-78
2022/12/21 00:41:29;;;;;;;77.75;38.75;;;;;;;;;;1039552;28;20021;-78
2022/12/21 00:42:00;;;;;;;87.18;38.65;;;;;;;;;;1037346;28;20520;-78
2022/12/21 00:42:31;;;;;;;85.60;37.28;;;;;;;;;;1039700;28;20099;-78
2022/12/21 00:43:01;;;;;;;80.65;37.72;;;;;;;;;;1037836;28;20029;-78
2022/12/21 00:43:33;;;;;;;75.53;35.90;;;;;;;;;;1039782;28;20485;-78
2022/12/21 00:44:04;;;;;;;96.93;38.88;;;;;;;;;;1039400;28;20025;-78
2022/12/21 00:44:35;;;;;;;96.43;40.75;;;;;;;;;;1034276;28;20017;-78
2022/12/21 00:45:05;;;;;;;104.47;41.55;;;;;;;;;;1039425;28;20029;-77
2022/12/21 00:45:36;;;;;;;111.22;42.22;;;;;;;;;;1035385;28;20068;-77
2022/12/21 00:46:10;;;;;;;112.30;44.65;;;;;;;;;;1031412;28;20019;-77
2022/12/21 00:46:41;;;;;;;114.60;48.97;;;;;;;;;;1030508;28;20027;-78
2022/12/21 00:47:12;;;;;;;121.75;48.28;;;;;;;;;;1031957;28;20660;-77
2022/12/21 00:47:43;;;;;;;116.85;45.83;;;;;;;;;;1033749;28;20448;-78
2022/12/21 00:48:13;;;;;;;92.95;41.90;;;;;;;;;;1039245;28;20029;-78
2022/12/21 00:48:44;;;;;;;106.85;45.40;;;;;;;;;;1039553;28;20029;-78
2022/12/21 00:49:15;;;;;;;95.03;41.33;;;;;;;;;;1039685;28;20021;-78
2022/12/21 00:49:45;;;;;;;92.65;43.17;;;;;;;;;;1039868;28;20040;-77
2022/12/21 00:50:16;;;;;;;100.07;42.42;;;;;;;;;;1039796;28;20507;-78
2022/12/21 00:50:47;;;;;;;104.80;42.85;;;;;;;;;;1038823;28;20491;-78
2022/12/21 00:51:19;;;;;;;98.82;41.28;;;;;;;;;;1039903;28;20025;-78
2022/12/21 00:51:50;;;;;;;103.20;40.17;;;;;;;;;;1039357;28;20029;-78
2022/12/21 00:52:20;;;;;;;92.10;42.95;;;;;;;;;;1039603;28;20069;-78
2022/12/21 00:52:51;;;;;;;103.45;44.55;;;;;;;;;;1039502;28;20064;-78
2022/12/21 00:53:21;;;;;;;118.57;46.10;;;;;;;;;;1039442;28;20066;-78
2022/12/21 00:53:53;;;;;;;115.03;47.53;;;;;;;;;;1039419;28;20036;-78
2022/12/21 00:54:23;;;;;;;120.00;50.47;;;;;;;;;;1039442;28;20075;-78
2022/12/21 00:54:54;;;;;;;117.32;51.78;;;;;;;;;;1039340;28;20444;-78
2022/12/21 00:55:25;;;;;;;112.43;48.03;;;;;;;;;;1039069;28;20409;-78
2022/12/21 00:55:56;;;;;;;99.15;44.85;;;;;;;;;;1035297;28;20141;-78
2022/12/21 00:56:27;;;;;;;103.93;44.10;;;;;;;;;;1035611;28;20020;-77
2022/12/21 00:56:57;;;;;;;95.95;39.70;;;;;;;;;;1035055;28;20018;-78
2022/12/21 00:57:28;;;;;;;93.50;39.80;;;;;;;;;;1035821;28;20025;-78
2022/12/21 00:57:59;;;;;;;96.57;41.70;;;;;;;;;;1037251;28;20018;-78
2022/12/21 00:58:30;;;;;;;163.52;59.40;;;;;;;;;;1035699;28;20513;-78
2022/12/21 00:59:01;;;;;;;87.80;39.65;;;;;;;;;;1035248;28;20108;-78
2022/12/21 00:59:31;;;;;;;92.13;41.05;;;;;;;;;;1035278;28;20049;-78
2022/12/21 01:00:02;;;;;;;108.32;45.67;;;;;;;;;;1035292;28;20509;-78
2022/12/21 01:00:33;;;;;;;87.57;38.17;;;;;;;;;;1038342;28;20034;-78
2022/12/21 01:01:05;;;;;;;65.88;30.67;;;;;;;;;;1039719;28;20492;-78
2022/12/21 01:01:36;;;;;;;57.35;29.27;;;;;;;;;;1039797;28;20025;-78
2022/12/21 01:02:06;;;;;;;53.15;23.00;;;;;;;;;;1039345;28;20381;-78
2022/12/21 01:02:37;;;;;;;60.95;28.60;;;;;;;;;;1039671;28;20021;-78
2022/12/21 01:03:08;;;;;;;65.82;28.75;;;;;;;;;;1039367;28;20095;-78
2022/12/21 01:03:38;;;;;;;54.63;24.38;;;;;;;;;;1039347;28;20095;-77
2022/12/21 01:04:09;;;;;;;58.88;27.95;;;;;;;;;;1039512;28;20033;-78
2022/12/21 01:04:40;;;;;;;62.33;30.55;;;;;;;;;;1039606;28;20030;-76
2022/12/21 01:05:10;;;;;;;66.75;26.95;;;;;;;;;;1039457;28;20037;-78
2022/12/21 01:05:41;;;;;;;51.78;26.25;;;;;;;;;;1039833;28;20113;-78
2022/12/21 01:06:19;;;;;;;60.78;27.42;;;;;;;;;;1039697;28;20109;-78
2022/12/21 01:06:50;;;;;;;50.97;25.50;;;;;;;;;;1037592;28;20187;-78
2022/12/21 01:07:21;;;;;;;71.05;36.35;;;;;;;;;;1039482;28;20562;-77
2022/12/21 01:07:51;;;;;;;91.22;45.35;;;;;;;;;;1036049;28;20032;-77
2022/12/21 01:08:23;;;;;;;106.85;51.50;;;;;;;;;;1035426;28;20072;-77
2022/12/21 01:08:54;;;;;;;98.70;48.15;;;;;;;;;;1038321;28;20017;-78
2022/12/21 01:09:25;;;;;;;111.10;55.72;;;;;;;;;;1036190;28;20033;-77
2022/12/21 01:09:58;;;;;;;132.85;59.22;;;;;;;;;;1040163;28;20037;-78
2022/12/21 01:10:29;;;;;;;161.27;75.30;;;;;;;;;;1034920;28;20039;-77
2022/12/21 01:11:01;;;;;;;300.80;123.78;;;;;;;;;;1036131;28;20470;-78
2022/12/21 01:11:32;;;;;;;224.50;102.72;;;;;;;;;;1035872;28;20520;-78
2022/12/21 01:12:03;;;;;;;317.63;133.38;;;;;;;;;;1031556;28;20056;-78
2022/12/21 01:12:34;;;;;;;411.33;169.88;;;;;;;;;;1035531;28;20028;-78
2022/12/21 01:13:04;;;;;;;372.13;166.55;;;;;;;;;;1035595;28;20445;-78
2022/12/21 01:13:35;;;;;;;277.30;121.22;;;;;;;;;;1034067;28;20022;-77
2022/12/21 01:14:05;;;;;;;140.35;64.35;;;;;;;;;;1038056;28;20018;-78
2022/12/21 01:14:36;;;;;;;139.15;62.17;;;;;;;;;;1039800;28;20025;-78
2022/12/21 01:15:07;;;;;;;125.30;58.25;;;;;;;;;;1040667;28;20006;-78
2022/12/21 01:15:43;;;;;;;93.75;43.78;;;;;;;;;;1042876;28;20030;-78
2022/12/21 01:16:16;;;;;;;79.22;37.20;;;;;;;;;;1038288;28;20022;-78
2022/12/21 01:16:46;;;;;;;73.95;32.90;;;;;;;;;;1031015;28;20034;-78
2022/12/21 01:17:17;;;;;;;64.00;30.73;;;;;;;;;;1032775;28;20030;-78
2022/12/21 01:17:48;;;;;;;66.18;31.00;;;;;;;;;;1032851;28;20026;-78
2022/12/21 01:18:18;;;;;;;75.65;28.02;;;;;;;;;;1035198;28;20038;-78
2022/12/21 01:18:49;;;;;;;57.38;28.63;;;;;;;;;;1039184;28;20021;-78
2022/12/21 01:19:20;;;;;;;56.80;26.63;;;;;;;;;;1033463;28;20026;-78
2022/12/21 01:19:51;;;;;;;55.08;25.67;;;;;;;;;;1038856;28;20096;-78
2022/12/21 01:20:22;;;;;;;64.05;27.08;;;;;;;;;;1038610;28;20018;-78
2022/12/21 01:20:56;;;;;;;73.53;29.00;;;;;;;;;;1032863;28;20026;-78
2022/12/21 01:21:27;;;;;;;59.17;27.20;;;;;;;;;;1038824;28;20049;-78
2022/12/21 01:21:58;;;;;;;70.60;30.73;;;;;;;;;;1032776;28;20518;-78
2022/12/21 01:22:29;;;;;;;53.25;25.00;;;;;;;;;;1033992;28;20045;-78
2022/12/21 01:22:59;;;;;;;65.25;24.25;;;;;;;;;;1035982;28;20080;-78
2022/12/21 01:23:30;;;;;;;54.95;27.90;;;;;;;;;;1053316;23;20049;-78
2022/12/21 01:24:00;;;;;;;71.05;27.23;;;;;;;;;;1037449;28;20402;-78
2022/12/21 01:24:31;;;;;;;64.60;24.67;;;;;;;;;;1037868;28;20082;-78
2022/12/21 01:25:02;;;;;;;69.18;28.90;;;;;;;;;;1037423;28;20014;-78
2022/12/21 01:25:33;;;;;;;72.20;36.10;;;;;;;;;;1035730;28;20184;-78
2022/12/21 01:26:03;;;;;;;98.00;42.38;;;;;;;;;;1036635;28;20027;-78
2022/12/21 01:26:34;;;;;;;113.40;51.17;;;;;;;;;;1036245;28;20030;-78
2022/12/21 01:27:05;;;;;;;136.40;62.75;;;;;;;;;;1037618;28;20436;-78
2022/12/21 01:27:35;;;;;;;118.93;52.95;;;;;;;;;;1033235;28;20112;-78
2022/12/21 01:28:06;;;;;;;122.25;53.95;;;;;;;;;;1032545;28;20125;-78
2022/12/21 01:28:37;;;;;;;90.43;42.42;;;;;;;;;;1037996;28;20032;-78
2022/12/21 01:29:12;;;;;;;72.57;29.50;;;;;;;;;;1034835;28;20029;-78
2022/12/21 01:29:42;;;;;;;50.58;23.80;;;;;;;;;;1037212;28;20114;-78
2022/12/21 01:30:13;;;;;;;72.60;25.92;;;;;;;;;;1032841;28;20033;-78
2022/12/21 01:30:44;;;;;;;65.05;26.92;;;;;;;;;;1032374;28;20022;-78
2022/12/21 01:31:14;;;;;;;74.22;29.85;;;;;;;;;;1037693;28;20038;-78
2022/12/21 01:31:46;;;;;;;69.45;24.73;;;;;;;;;;1036280;28;20052;-78
2022/12/21 01:32:17;;;;;;;60.92;27.65;;;;;;;;;;1037719;28;20025;-77
2022/12/21 01:32:48;;;;;;;63.60;26.52;;;;;;;;;;1037041;28;20034;-78
2022/12/21 01:33:19;;;;;;;70.75;28.30;;;;;;;;;;1037321;28;20017;-77
2022/12/21 01:33:50;;;;;;;50.58;21.83;;;;;;;;;;1035242;28;20532;-77
2022/12/21 01:34:20;;;;;;;50.78;22.65;;;;;;;;;;1037414;28;20029;-77
2022/12/21 01:34:51;;;;;;;43.97;20.67;;;;;;;;;;1036889;28;20124;-77
2022/12/21 01:35:22;;;;;;;31.13;16.10;;;;;;;;;;1038913;28;20464;-78
2022/12/21 01:35:52;;;;;;;30.30;13.73;;;;;;;;;;1036808;28;20021;-78
2022/12/21 01:36:23;;;;;;;38.30;18.00;;;;;;;;;;1038486;28;20017;-77
2022/12/21 01:36:53;;;;;;;38.53;16.63;;;;;;;;;;1033083;28;20065;-77
2022/12/21 01:37:24;;;;;;;44.42;18.08;;;;;;;;;;1033965;28;20034;-77
2022/12/21 01:37:55;;;;;;;38.25;16.88;;;;;;;;;;1031993;28;20464;-77
2022/12/21 01:38:25;;;;;;;33.72;16.65;;;;;;;;;;1031315;28;20022;-77
2022/12/21 01:38:56;;;;;;;49.25;25.02;;;;;;;;;;1035415;28;20060;-77
2022/12/21 01:39:28;;;;;;;59.22;28.33;;;;;;;;;;1037498;28;20084;-77
2022/12/21 01:39:59;;;;;;;72.82;32.28;;;;;;;;;;1033002;28;20590;-77
2022/12/21 01:40:30;;;;;;;51.17;21.77;;;;;;;;;;1036251;28;20029;-77
2022/12/21 01:41:00;;;;;;;44.72;20.52;;;;;;;;;;1037025;28;20584;-78
2022/12/21 01:41:31;;;;;;;62.72;28.15;;;;;;;;;;1037427;28;20022;-77
2022/12/21 01:42:02;;;;;;;41.13;17.23;;;;;;;;;;1037870;28;20448;-77
2022/12/21 01:42:32;;;;;;;61.05;28.98;;;;;;;;;;1036340;28;20030;-77
2022/12/21 01:43:18;;;;;;;40.60;17.38;;;;;;;;;;1038031;28;20592;-77
2022/12/21 01:43:53;;;;;;;31.55;14.73;;;;;;;;;;1038422;28;20033;-78
2022/12/21 01:44:44;;;;;;;25.38;13.68;;;;;;;;;;1036918;28;20036;-78
2022/12/21 01:45:21;;;;;;;22.90;14.02;;;;;;;;;;1037707;28;20236;-78
2022/12/21 01:45:51;;;;;;;40.85;18.55;;;;;;;;;;1032246;28;20029;-76
2022/12/21 01:46:36;;;;;;;34.60;15.40;;;;;;;;;;1037041;28;20018;-78
2022/12/21 01:47:10;;;;;;;22.52;12.05;;;;;;;;;;1037832;28;20538;-78
2022/12/21 01:47:43;;;;;;;30.70;14.15;;;;;;;;;;1037030;28;20451;-76
2022/12/21 01:48:15;;;;;;;21.40;10.40;;;;;;;;;;1038566;28;20153;-76
2022/12/21 01:48:49;;;;;;;27.05;14.75;;;;;;;;;;1036820;28;20026;-76
2022/12/21 01:49:20;;;;;;;26.00;13.30;;;;;;;;;;1038402;28;20025;-76
2022/12/21 01:49:52;;;;;;;26.50;13.57;;;;;;;;;;1039102;28;20112;-76
2022/12/21 01:50:23;;;;;;;19.65;13.18;;;;;;;;;;1036868;28;20690;-78
2022/12/21 01:50:59;;;;;;;38.03;9.43;;;;;;;;;;1037472;28;20021;-78
2022/12/21 01:51:32;;;;;;;16.92;9.55;;;;;;;;;;1033923;28;20157;-78
2022/12/21 01:52:04;;;;;;;23.23;12.77;;;;;;;;;;1033223;28;20038;-76
2022/12/21 01:52:35;;;;;;;41.30;11.80;;;;;;;;;;1032596;28;20500;-76
2022/12/21 01:53:09;;;;;;;25.15;13.50;;;;;;;;;;1034126;28;20032;-78
2022/12/21 01:53:43;;;;;;;23.42;11.98;;;;;;;;;;1035123;28;20109;-79
2022/12/21 01:54:25;;;;;;;24.55;11.27;;;;;;;;;;1034353;28;20018;-79
2022/12/21 01:54:57;;;;;;;17.23;9.45;;;;;;;;;;1036070;28;20030;-78
2022/12/21 01:55:29;;;;;;;19.65;9.68;;;;;;;;;;1034828;28;20109;-79
2022/12/21 01:56:02;;;;;;;19.13;8.93;;;;;;;;;;1036068;28;20022;-78
2022/12/21 01:56:34;;;;;;;22.10;9.55;;;;;;;;;;1033869;28;20022;-78
2022/12/21 01:57:07;;;;;;;13.18;9.07;;;;;;;;;;1030440;28;20470;-76
2022/12/21 01:57:37;;;;;;;16.77;8.02;;;;;;;;;;1028964;28;20065;-78
2022/12/21 01:58:08;;;;;;;21.35;11.82;;;;;;;;;;1033429;28;20030;-78
2022/12/21 01:58:40;;;;;;;12.95;9.38;;;;;;;;;;1035983;28;20064;-77
2022/12/21 01:59:29;;;;;;;17.40;9.25;;;;;;;;;;1037544;28;20022;-77
2022/12/21 02:00:02;;;;;;;19.98;11.50;;;;;;;;;;1038469;28;20021;-77
2022/12/21 02:00:33;;;;;;;22.73;10.23;;;;;;;;;;1036514;28;20452;-77
2022/12/21 02:01:05;;;;;;;17.92;9.35;;;;;;;;;;1038338;28;20025;-77
2022/12/21 02:01:36;;;;;;;18.27;8.90;;;;;;;;;;1039768;28;20021;-76
2022/12/21 02:02:09;;;;;;;22.00;10.65;;;;;;;;;;1037804;28;20493;-77
2022/12/21 02:02:42;;;;;;;13.30;8.93;;;;;;;;;;1038891;28;20023;-77
2022/12/21 02:03:16;;;;;;;17.95;9.40;;;;;;;;;;1037708;28;20324;-77
2022/12/21 02:03:49;;;;;;;18.10;9.52;;;;;;;;;;1039095;28;20116;-77
2022/12/21 02:04:20;;;;;;;18.42;10.25;;;;;;;;;;1035463;28;20022;-77
2022/12/21 02:04:52;;;;;;;15.10;8.30;;;;;;;;;;1038840;28;20030;-77
2022/12/21 02:05:28;;;;;;;15.32;8.15;;;;;;;;;;1039523;28;20084;-77
2022/12/21 02:06:09;;;;;;;19.40;7.60;;;;;;;;;;1035444;28;20176;-78
2022/12/21 02:06:51;;;;;;;11.82;6.18;;;;;;;;;;1038375;28;20025;-77
2022/12/21 02:07:22;;;;;;;16.85;7.18;;;;;;;;;;1038879;28;20112;-76
2022/12/21 02:07:56;;;;;;;17.65;7.93;;;;;;;;;;1053239;22;20038;-77
2022/12/21 02:08:26;;;;;;;14.52;8.63;;;;;;;;;;1047643;28;20100;-76
2022/12/21 02:08:58;;;;;;;10.98;8.15;;;;;;;;;;1042268;28;20481;-77
2022/12/21 02:09:31;;;;;;;22.52;8.23;;;;;;;;;;1041461;28;20033;-79
2022/12/21 02:10:02;;;;;;;15.70;9.48;;;;;;;;;;1041522;28;20025;-79
2022/12/21 02:10:33;;;;;;;13.73;8.23;;;;;;;;;;1042546;28;20416;-76
2022/12/21 02:11:03;;;;;;;13.35;8.82;;;;;;;;;;1043358;28;20162;-76
2022/12/21 02:11:34;;;;;;;15.98;8.65;;;;;;;;;;1043887;28;20039;-79
2022/12/21 02:12:07;;;;;;;17.60;8.35;;;;;;;;;;1042890;28;20020;-78
2022/12/21 02:12:38;;;;;;;25.17;7.53;;;;;;;;;;1043780;28;21514;-77
2022/12/21 02:13:10;;;;;;;13.65;8.18;;;;;;;;;;1040764;28;20022;-77
2022/12/21 02:13:41;;;;;;;15.25;8.55;;;;;;;;;;1043758;28;20021;-77
2022/12/21 02:14:14;;;;;;;16.45;8.68;;;;;;;;;;1040518;28;20028;-77
2022/12/21 02:14:46;;;;;;;21.20;9.93;;;;;;;;;;1040689;28;20108;-77
2022/12/21 02:15:16;;;;;;;12.48;7.35;;;;;;;;;;1043466;28;20063;-77
2022/12/21 02:15:59;;;;;;;15.82;8.35;;;;;;;;;;1044083;28;20420;-77
2022/12/21 02:16:44;;;;;;;31.10;10.13;;;;;;;;;;1043461;28;20082;-77
2022/12/21 02:17:21;;;;;;;16.33;7.57;;;;;;;;;;1042869;28;20028;-77
2022/12/21 02:18:12;;;;;;;20.63;7.28;;;;;;;;;;1043304;28;20023;-77
2022/12/21 02:18:55;;;;;;;19.38;8.38;;;;;;;;;;1040063;28;20409;-77
2022/12/21 02:19:44;;;;;;;15.27;7.07;;;;;;;;;;1039889;28;20021;-77
2022/12/21 02:20:28;;;;;;;12.70;7.10;;;;;;;;;;1043142;28;20472;-77
2022/12/21 02:21:17;;;;;;;9.80;6.30;;;;;;;;;;1043816;28;20243;-77
2022/12/21 02:21:54;;;;;;;15.32;6.97;;;;;;;;;;1044047;28;20620;-76
2022/12/21 02:22:31;;;;;;;17.70;8.50;;;;;;;;;;1041696;28;20032;-78
2022/12/21 02:23:18;;;;;;;12.32;6.70;;;;;;;;;;1044164;28;20036;-78
2022/12/21 02:23:49;;;;;;;13.48;6.35;;;;;;;;;;1042870;28;20110;-78
2022/12/21 02:24:20;;;;;;;17.77;7.50;;;;;;;;;;1040291;28;20047;-78
2022/12/21 02:25:01;;;;;;;32.20;9.98;;;;;;;;;;1039784;28;20063;-78
2022/12/21 02:25:41;;;;;;;14.45;7.20;;;;;;;;;;1038913;28;20642;-78
2022/12/21 02:26:12;;;;;;;14.35;7.60;;;;;;;;;;1040582;28;20033;-78
2022/12/21 02:26:43;;;;;;;19.45;9.20;;;;;;;;;;1039235;28;20025;-78
2022/12/21 02:27:34;;;;;;;15.38;8.25;;;;;;;;;;1035582;28;20025;-78
2022/12/21 02:28:23;;;;;;;21.88;9.15;;;;;;;;;;1030915;28;20533;-78
2022/12/21 02:29:14;;;;;;;9.98;6.40;;;;;;;;;;1042690;28;20562;-77
2022/12/21 02:29:51;;;;;;;11.25;6.50;;;;;;;;;;1042939;28;20504;-77
2022/12/21 02:30:22;;;;;;;22.35;7.10;;;;;;;;;;1044601;28;20028;-78
2022/12/21 02:31:25;;;;;;;10.48;5.53;;;;;;;;;;1044565;28;20024;-77
2022/12/21 02:32:08;;;;;;;14.65;6.97;;;;;;;;;;1035204;28;20524;-77
2022/12/21 02:32:41;;;;;;;13.27;5.22;;;;;;;;;;1034465;28;20014;-77
2022/12/21 02:33:15;;;;;;;12.75;5.55;;;;;;;;;;1042253;28;20036;-77
2022/12/21 02:34:05;;;;;;;15.50;7.35;;;;;;;;;;1042932;28;20452;-77
2022/12/21 02:34:50;;;;;;;10.95;5.55;;;;;;;;;;1044719;28;20178;-77
2022/12/21 02:35:24;;;;;;;17.75;6.97;;;;;;;;;;1044479;28;20023;-77
2022/12/21 02:36:13;;;;;;;11.30;6.13;;;;;;;;;;1038423;28;21210;-77
2022/12/21 02:36:49;;;;;;;19.55;6.97;;;;;;;;;;1038267;28;20045;-77
2022/12/21 02:37:25;;;;;;;19.83;8.55;;;;;;;;;;1043454;28;20104;-76
2022/12/21 02:37:56;;;;;;;17.73;7.78;;;;;;;;;;1042116;28;20068;-77
2022/12/21 02:38:45;;;;;;;17.23;8.27;;;;;;;;;;1041377;28;20414;-77
2022/12/21 02:39:15;;;;;;;20.85;7.97;;;;;;;;;;1038501;28;20033;-77
2022/12/21 02:39:55;;;;;;;21.17;8.25;;;;;;;;;;1041217;28;20480;-77
2022/12/21 02:40:38;;;;;;;15.15;7.50;;;;;;;;;;1044690;28;21056;-77
2022/12/21 02:41:08;;;;;;;14.40;8.50;;;;;;;;;;1038251;28;20052;-77
2022/12/21 02:41:57;;;;;;;16.15;9.05;;;;;;;;;;1040651;28;20029;-77
2022/12/21 02:44:55;;;;;;;18.35;8.85;;;;;;;;;;1041251;28;20017;-77
2022/12/21 02:45:30;;;;;;;16.33;9.63;;;;;;;;;;1042040;28;20396;-77
2022/12/21 02:46:04;;;;;;;14.13;7.53;;;;;;;;;;1042547;28;20504;-77
2022/12/21 02:46:55;;;;;;;10.90;6.35;;;;;;;;;;1042795;28;20033;-78
2022/12/21 02:47:35;;;;;;;17.65;6.55;;;;;;;;;;1040227;28;20083;-78
2022/12/21 02:48:19;;;;;;;22.45;7.32;;;;;;;;;;1038618;28;20123;-78
2022/12/21 02:49:12;;;;;;;9.95;6.10;;;;;;;;;;1037094;28;20136;-77
2022/12/21 02:49:46;;;;;;;22.02;5.97;;;;;;;;;;1034124;28;20015;-76
2022/12/21 02:50:23;;;;;;;26.83;7.65;;;;;;;;;;1042904;23;20091;-76
2022/12/21 02:50:57;;;;;;;26.48;7.80;;;;;;;;;;1038545;28;20439;-77
2022/12/21 02:51:38;;;;;;;27.33;7.85;;;;;;;;;;1039197;28;20124;-77
2022/12/21 02:52:09;;;;;;;34.08;9.68;;;;;;;;;;1034302;28;20038;-76
2022/12/21 02:52:40;;;;;;;35.08;12.07;;;;;;;;;;1032068;28;20029;-77
2022/12/21 02:53:16;;;;;;;33.88;12.30;;;;;;;;;;1033978;28;20029;-77
2022/12/21 02:53:47;;;;;;;36.70;11.00;;;;;;;;;;1035076;28;20472;-76
2022/12/21 02:54:18;;;;;;;32.10;10.93;;;;;;;;;;1034525;28;20187;-78
2022/12/21 02:54:53;;;;;;;28.38;10.18;;;;;;;;;;1034951;28;20141;-78
2022/12/21 02:55:25;;;;;;;31.73;10.27;;;;;;;;;;1039136;28;20033;-77
2022/12/21 02:55:56;;;;;;;25.48;9.27;;;;;;;;;;1038401;28;20045;-77
2022/12/21 02:56:28;;;;;;;27.15;10.18;;;;;;;;;;1039848;28;20026;-77
2022/12/21 02:56:59;;;;;;;26.38;9.20;;;;;;;;;;1034021;28;20025;-77
2022/12/21 02:57:30;;;;;;;36.05;11.85;;;;;;;;;;1032667;28;20117;-76
2022/12/21 02:58:11;;;;;;;39.97;10.55;;;;;;;;;;1034040;28;20045;-77
2022/12/21 02:58:42;;;;;;;27.90;9.73;;;;;;;;;;1033259;28;20018;-78
2022/12/21 02:59:15;;;;;;;30.60;12.32;;;;;;;;;;1030376;28;20080;-79
2022/12/21 02:59:47;;;;;;;35.03;12.85;;;;;;;;;;1030549;28;20068;-78
2022/12/21 03:00:19;;;;;;;30.98;10.60;;;;;;;;;;1033817;28;20102;-78
2022/12/21 03:00:52;;;;;;;27.42;10.55;;;;;;;;;;1030066;28;20026;-78
2022/12/21 03:01:32;;;;;;;46.08;12.65;;;;;;;;;;1035079;28;20061;-78
2022/12/21 03:02:17;;;;;;;34.08;10.65;;;;;;;;;;1035205;28;20022;-77
2022/12/21 03:03:47;;;;;;;50.13;15.40;;;;;;;;;;1040515;28;20104;-77
2022/12/21 03:04:24;;;;;;;;;;;;;;;;;;1047703;22;20784;-78
2022/12/21 03:05:12;;;;;;;33.03;10.73;;;;;;;;;;1033997;28;19952;-78
2022/12/21 03:05:45;;;;;;;28.33;12.98;;;;;;;;;;1034753;28;20022;-79
2022/12/21 03:06:36;;;;;;;26.25;10.95;;;;;;;;;;1033973;28;20431;-80
2022/12/21 03:07:28;;;;;;;26.85;8.95;;;;;;;;;;1033033;28;20030;-78
2022/12/21 03:08:15;;;;;;;23.25;10.07;;;;;;;;;;1033903;28;20030;-78
2022/12/21 03:08:56;;;;;;;31.02;8.63;;;;;;;;;;1034004;28;20030;-80
2022/12/21 03:09:45;;;;;;;25.13;9.88;;;;;;;;;;1034174;28;20125;-79
2022/12/21 03:10:48;;;;;;;20.20;9.60;;;;;;;;;;1036782;28;20597;-78
2022/12/21 03:11:19;;;;;;;26.50;9.60;;;;;;;;;;1023483;28;20031;-79
2022/12/21 03:11:50;;;;;;;26.70;9.60;;;;;;;;;;1021509;29;20020;-78
2022/12/21 03:12:43;;;;;;;15.65;9.88;;;;;;;;;;1023192;28;20070;-78
2022/12/21 03:13:43;;;;;;;18.58;9.88;;;;;;;;;;1022318;28;20131;-78
2022/12/21 03:14:22;;;;;;;21.10;10.18;;;;;;;;;;1020294;28;20344;-78
2022/12/21 03:14:58;;;;;;;21.52;9.23;;;;;;;;;;1030024;28;20081;-79
2022/12/21 03:15:35;;;;;;;20.80;11.02;;;;;;;;;;1027410;28;20715;-77
2022/12/21 03:16:11;;;;;;;17.83;10.02;;;;;;;;;;1027376;28;20078;-78
2022/12/21 03:16:45;;;;;;;34.80;10.43;;;;;;;;;;1031132;28;20109;-78
2022/12/21 03:17:15;;;;;;;30.50;12.50;;;;;;;;;;1031844;28;20114;-78
2022/12/21 03:18:04;;;;;;;27.20;10.80;;;;;;;;;;1036827;28;20100;-78
2022/12/21 03:18:46;;;;;;;34.92;11.38;;;;;;;;;;1033627;28;20573;-78
2022/12/21 03:19:31;;;;;;;41.88;12.20;;;;;;;;;;1028120;28;20033;-78
2022/12/21 03:20:08;;;;;;;42.08;11.02;;;;;;;;;;1029839;28;20619;-79
2022/12/21 03:20:42;;;;;;;33.28;9.90;;;;;;;;;;1033794;28;20022;-79